Time;durP1;ratioP1;P1;durP2;ratioP2;P2;SDS_P1;SDS_P2;PMS_P1;PMS_P2;Temp;Humidity;BMP_temperature;BMP_pressure;BME280_temperature;BME280_humidity;BME280_pressure;Samples;Min_cycle;Max_cycle;Signal;HPM_P1;HPM_P2
2022/08/24 00:00:17;;;;;;;21.92;15.68;;;20.10;99.90;;;;;;6196214;23;20373;-91
2022/08/24 00:02:43;;;;;;;21.08;15.05;;;20.00;99.90;;;;;;6196258;23;20008;-89
2022/08/24 00:05:09;;;;;;;20.45;14.73;;;20.00;99.90;;;;;;6196054;23;20048;-91
2022/08/24 00:07:35;;;;;;;;;;;19.90;99.90;;;;;;6196547;23;20016;-91
2022/08/24 00:10:04;;;;;;;25.33;16.23;;;20.00;99.90;;;;;;6195918;23;19922;-91
2022/08/24 00:12:31;;;;;;;22.85;15.85;;;20.00;99.90;;;;;;6195773;23;20027;-91
2022/08/24 00:14:56;;;;;;;22.33;15.23;;;20.00;99.90;;;;;;6195973;23;20020;-91
2022/08/24 00:17:25;;;;;;;21.70;15.48;;;20.00;99.90;;;;;;6195698;23;20099;-91
2022/08/24 00:19:51;;;;;;;23.05;16.05;;;20.00;99.90;;;;;;6195874;23;20039;-92
2022/08/24 00:22:18;;;;;;;22.58;15.75;;;20.00;99.90;;;;;;6196082;23;20024;-91
2022/08/24 00:24:43;;;;;;;21.10;14.75;;;20.00;99.90;;;;;;6195710;23;20016;-90
2022/08/24 00:27:11;;;;;;;22.00;15.85;;;20.00;99.90;;;;;;6195866;23;20099;-91
2022/08/24 00:29:37;;;;;;;21.52;15.20;;;19.90;99.90;;;;;;6195451;23;20083;-91
2022/08/24 00:32:03;;;;;;;22.63;15.48;;;19.90;99.90;;;;;;6195695;23;20020;-92
2022/08/24 00:34:30;;;;;;;;;;;19.90;99.90;;;;;;6196292;23;20020;-91
2022/08/24 00:36:56;;;;;;;23.48;15.75;;;19.90;99.90;;;;;;6195665;23;19911;-92
2022/08/24 00:39:22;;;;;;;20.90;14.18;;;19.90;99.90;;;;;;6195703;23;20027;-91
2022/08/24 00:41:49;;;;;;;21.40;14.38;;;19.90;99.90;;;;;;6195723;23;20337;-91
2022/08/24 00:44:16;;;;;;;22.52;15.68;;;19.90;99.90;;;;;;6195826;23;20020;-91
2022/08/24 00:46:44;;;;;;;21.48;14.05;;;19.90;99.90;;;;;;6195897;23;20016;-91
2022/08/24 00:49:19;;;;;;;20.00;14.90;;;19.80;99.90;;;;;;6195461;23;20059;-92
2022/08/24 00:52:03;;;;;;;20.83;13.30;;;19.80;99.90;;;;;;6195515;23;20046;-92
2022/08/24 00:54:31;;;;;;;20.65;15.18;;;19.70;99.90;;;;;;6195611;23;20027;-92
2022/08/24 00:57:03;;;;;;;18.10;12.63;;;19.70;99.90;;;;;;6195599;23;20020;-91
2022/08/24 00:59:35;;;;;;;20.90;14.43;;;19.70;99.90;;;;;;6195440;23;20027;-91
2022/08/24 01:02:16;;;;;;;18.23;12.13;;;19.70;99.90;;;;;;6195274;23;20408;-91
2022/08/24 01:04:50;;;;;;;17.17;11.68;;;19.70;99.90;;;;;;6195355;23;20028;-91
2022/08/24 01:07:16;;;;;;;18.55;13.40;;;19.70;99.90;;;;;;6195467;23;20028;-91
2022/08/24 01:09:41;;;;;;;20.10;13.02;;;19.60;99.90;;;;;;6195212;23;20059;-91
2022/08/24 01:12:08;;;;;;;21.73;15.32;;;19.60;99.90;;;;;;6195413;23;20446;-92
2022/08/24 01:14:36;;;;;;;21.40;13.05;;;19.50;99.90;;;;;;6195427;23;20389;-92
2022/08/24 01:19:53;;;;;;;18.13;11.93;;;19.50;99.90;;;;;;6220422;23;20086;-92
2022/08/24 01:22:35;;;;;;;20.00;12.95;;;19.40;99.90;;;;;;6195234;23;20020;-92
2022/08/24 01:25:01;;;;;;;16.10;11.02;;;19.50;99.90;;;;;;6195346;23;20052;-90
2022/08/24 01:27:28;;;;;;;14.35;10.68;;;19.50;99.90;;;;;;6195100;23;20024;-91
2022/08/24 01:30:10;;;;;;;;;;;;;;;;;;;;;
2022/08/24 01:32:37;;;;;;;19.10;13.27;;;19.50;99.90;;;;;;6219983;23;20023;-90
2022/08/24 01:35:04;;;;;;;20.75;13.98;;;19.50;99.90;;;;;;6195486;23;20104;-91
2022/08/24 01:37:31;;;;;;;19.42;12.43;;;19.50;99.90;;;;;;6195308;23;20020;-91
2022/08/24 01:40:02;;;;;;;15.30;11.73;;;19.40;99.90;;;;;;6195032;23;20020;-91
2022/08/24 01:42:54;;;;;;;16.38;11.05;;;19.50;99.90;;;;;;6195122;23;20107;-91
2022/08/24 01:45:21;;;;;;;15.68;9.93;;;19.50;99.90;;;;;;6176521;23;20027;-91
2022/08/24 01:48:12;;;;;;;15.85;10.30;;;19.40;99.90;;;;;;6194922;23;20016;-91
2022/08/24 01:51:17;;;;;;;;;;;;;;;;;;;;;
2022/08/24 01:54:07;;;;;;;;;;;;;;;;;;;;;
2022/08/24 01:56:36;;;;;;;19.33;12.32;;;19.20;99.90;;;;;;6219798;23;20460;-90
2022/08/24 01:59:03;;;;;;;15.02;10.20;;;19.20;99.90;;;;;;6194691;23;20016;-91
2022/08/24 02:01:34;;;;;;;15.90;10.88;;;19.20;99.90;;;;;;6194978;23;20051;-91
2022/08/24 02:04:27;;;;;;;;;;;;;;;;;;;;;
2022/08/24 02:06:56;;;;;;;13.82;9.90;;;19.20;99.90;;;;;;6219520;23;20050;-91
2022/08/24 02:09:21;;;;;;;15.13;10.52;;;19.10;99.90;;;;;;6198084;23;20020;-91
2022/08/24 02:11:48;;;;;;;14.85;10.27;;;19.00;99.90;;;;;;6245307;23;20100;-91
2022/08/24 02:14:14;;;;;;;;;;;18.90;99.90;;;;;;6245532;23;20027;-91
2022/08/24 02:16:40;;;;;;;16.25;11.00;;;18.80;99.90;;;;;;6194944;23;19974;-91
2022/08/24 02:19:05;;;;;;;16.38;11.30;;;18.70;99.90;;;;;;6245005;22;20013;-91
2022/08/24 02:21:31;;;;;;;17.33;12.18;;;18.70;99.90;;;;;;6245075;23;20031;-91
2022/08/24 02:24:06;;;;;;;12.93;9.77;;;18.70;99.90;;;;;;6245373;23;20017;-91
2022/08/24 02:27:09;;;;;;;;;;;;;;;;;;;;;
2022/08/24 02:29:35;;;;;;;13.35;9.30;;;18.50;99.90;;;;;;6219764;23;20024;-92
2022/08/24 02:32:00;;;;;;;11.02;7.88;;;18.50;99.90;;;;;;6194466;23;20524;-91
2022/08/24 02:34:26;;;;;;;12.73;9.05;;;18.50;99.90;;;;;;6219916;23;20065;-91
2022/08/24 02:37:19;;;;;;;14.40;9.18;;;18.50;99.90;;;;;;6219641;23;20124;-92
2022/08/24 02:39:44;;;;;;;12.25;8.13;;;18.50;99.90;;;;;;6194646;23;20013;-91
2022/08/24 02:42:10;;;;;;;11.05;7.72;;;18.60;99.90;;;;;;6220098;23;20085;-91
2022/08/24 02:44:36;;;;;;;11.57;8.32;;;18.60;99.90;;;;;;6219912;23;20020;-90
2022/08/24 02:47:02;;;;;;;12.95;8.80;;;18.60;99.90;;;;;;6219979;23;20473;-91
2022/08/24 02:49:27;;;;;;;11.23;8.15;;;18.50;99.90;;;;;;6220029;23;20024;-91
2022/08/24 02:51:53;;;;;;;11.95;8.23;;;18.50;99.90;;;;;;6219954;23;20020;-90
2022/08/24 02:54:19;;;;;;;12.68;8.85;;;18.50;99.90;;;;;;6219989;23;20024;-91
2022/08/24 02:56:46;;;;;;;10.10;7.72;;;18.40;99.90;;;;;;6218745;23;20016;-92
2022/08/24 02:59:12;;;;;;;;;;;18.40;99.90;;;;;;6195340;23;20028;-91
2022/08/24 03:01:38;;;;;;;8.37;6.13;;;18.40;99.90;;;;;;6195889;23;19942;-91
2022/08/24 03:04:05;;;;;;;8.55;6.25;;;18.40;99.90;;;;;;6221424;23;20024;-92
2022/08/24 03:06:31;;;;;;;;;;;18.40;99.90;;;;;;6221093;23;20063;-91
2022/08/24 03:08:57;;;;;;;9.48;6.97;;;18.40;99.90;;;;;;6196467;23;19916;-91
2022/08/24 03:11:24;;;;;;;8.65;6.28;;;18.50;99.90;;;;;;6196725;23;20023;-91
2022/08/24 03:13:50;;;;;;;9.93;6.78;;;18.50;99.90;;;;;;6196816;23;20042;-91
2022/08/24 03:16:15;;;;;;;9.02;6.22;;;18.50;99.90;;;;;;6196765;23;20461;-92
2022/08/24 03:18:42;;;;;;;8.85;6.00;;;18.50;99.90;;;;;;6196725;23;21107;-92
2022/08/24 03:21:09;;;;;;;8.32;6.00;;;18.50;99.90;;;;;;6196585;23;20078;-92
2022/08/24 03:23:35;;;;;;;9.60;6.50;;;18.50;99.90;;;;;;6196536;23;20024;-92
2022/08/24 03:26:01;;;;;;;;;;;18.40;99.90;;;;;;6196879;23;20024;-93
2022/08/24 03:32:07;;;;;;;11.65;7.90;;;18.40;99.90;;;;;;6248105;23;20046;-91
2022/08/24 03:34:34;;;;;;;11.73;8.18;;;18.40;99.90;;;;;;6196457;23;20020;-91
2022/08/24 03:36:59;;;;;;;11.20;7.72;;;18.40;99.90;;;;;;6195867;23;20369;-91
2022/08/24 03:42:52;;;;;;;10.65;7.30;;;18.40;99.90;;;;;;6149501;23;20020;-91
2022/08/24 03:49:20;;;;;;;11.93;8.32;;;18.30;99.90;;;;;;6248120;23;20110;-91
2022/08/24 03:51:46;;;;;;;13.77;8.47;;;18.20;99.90;;;;;;6196103;23;20528;-91
2022/08/24 03:54:13;;;;;;;12.85;8.77;;;18.10;99.90;;;;;;6196032;23;20020;-91
2022/08/24 04:04:25;;;;;;;8.35;6.05;;;18.10;99.90;;;;;;6247385;22;20024;-90
2022/08/24 04:06:51;;;;;;;9.73;6.53;;;18.10;99.90;;;;;;6195792;23;20331;-91
2022/08/24 04:09:17;;;;;;;9.65;6.20;;;18.10;99.90;;;;;;6220973;23;20031;-91
2022/08/24 04:11:44;;;;;;;9.60;6.22;;;18.10;99.90;;;;;;6195640;23;20020;-91
2022/08/24 04:14:10;;;;;;;7.47;5.20;;;18.10;99.90;;;;;;6195962;23;20020;-91
2022/08/24 04:16:36;;;;;;;7.15;4.93;;;18.10;99.90;;;;;;6195830;23;20103;-92
2022/08/24 04:19:02;;;;;;;7.57;4.70;;;18.00;99.90;;;;;;6195939;23;20063;-92
2022/08/24 04:21:31;;;;;;;6.78;4.68;;;18.00;99.90;;;;;;6195935;23;20020;-91
2022/08/24 04:23:58;;;;;;;7.53;5.68;;;18.00;99.90;;;;;;6195723;23;20134;-92
2022/08/24 04:26:26;;;;;;;7.75;5.35;;;17.90;99.90;;;;;;6195916;23;20016;-91
2022/08/24 04:28:52;;;;;;;8.93;6.50;;;17.90;99.90;;;;;;6195722;23;20020;-92
2022/08/24 04:31:18;;;;;;;9.13;6.28;;;17.90;99.90;;;;;;6195798;23;20127;-92
2022/08/24 04:33:46;;;;;;;8.68;6.20;;;17.90;99.90;;;;;;6195678;23;20019;-92
2022/08/24 04:36:12;;;;;;;7.88;5.80;;;17.80;99.90;;;;;;6195671;23;20445;-91
2022/08/24 04:38:38;;;;;;;8.00;5.65;;;17.80;99.90;;;;;;6195588;23;20044;-92
2022/08/24 04:41:05;;;;;;;8.38;5.97;;;17.90;99.90;;;;;;6195708;23;20032;-92
2022/08/24 04:43:31;;;;;;;9.40;6.45;;;17.90;99.90;;;;;;6195653;23;20016;-92
2022/08/24 04:45:57;;;;;;;9.95;6.05;;;18.00;99.90;;;;;;6195427;23;20024;-92
2022/08/24 04:48:23;;;;;;;9.23;6.13;;;18.10;99.90;;;;;;6195641;23;20338;-92
2022/08/24 04:50:49;;;;;;;8.18;5.75;;;18.00;99.90;;;;;;6195652;23;20065;-92
2022/08/24 04:53:16;;;;;;;8.43;5.65;;;18.10;99.90;;;;;;6194703;23;20523;-92
2022/08/24 04:55:45;;;;;;;11.30;7.30;;;18.10;99.90;;;;;;6195532;23;20016;-91
2022/08/24 04:58:13;;;;;;;15.13;9.65;;;18.10;99.90;;;;;;6195620;23;20024;-91
2022/08/24 05:00:39;;;;;;;15.95;8.98;;;18.10;99.90;;;;;;6195392;23;20027;-92
2022/08/24 05:03:49;;;;;;;13.10;8.35;;;18.20;99.90;;;;;;6195503;23;20059;-92
2022/08/24 05:06:50;;;;;;;;;;;;;;;;;;;;;
2022/08/24 05:09:16;;;;;;;12.35;7.93;;;18.20;99.90;;;;;;6149686;23;20028;-91
2022/08/24 05:11:49;;;;;;;13.05;8.63;;;18.20;99.90;;;;;;6220354;23;20377;-92
2022/08/24 05:14:16;;;;;;;13.63;8.48;;;18.20;99.90;;;;;;6220442;23;20027;-91
2022/08/24 05:16:42;;;;;;;11.77;7.70;;;18.20;99.90;;;;;;6195596;23;20024;-91
2022/08/24 05:19:08;;;;;;;11.27;7.40;;;18.10;99.90;;;;;;6220378;23;20031;-91
2022/08/24 05:21:33;;;;;;;11.57;7.80;;;18.10;99.90;;;;;;6220300;23;20024;-92
2022/08/24 05:23:59;;;;;;;10.93;7.15;;;18.10;99.90;;;;;;6220045;23;20346;-92
2022/08/24 05:26:26;;;;;;;11.27;7.38;;;18.10;99.90;;;;;;6219984;23;20028;-91
2022/08/24 05:29:17;;;;;;;9.23;6.53;;;18.10;99.90;;;;;;6195945;23;20024;-92
2022/08/24 05:32:10;;;;;;;11.45;8.00;;;18.10;99.90;;;;;;6219863;23;20020;-91
2022/08/24 05:34:35;;;;;;;11.88;7.82;;;18.10;99.90;;;;;;6219780;23;20024;-92
2022/08/24 05:37:44;;;;;;;10.73;7.22;;;18.10;99.90;;;;;;6220111;23;20051;-91
2022/08/24 05:40:13;;;;;;;9.77;7.05;;;18.20;99.90;;;;;;6172806;23;20103;-92
2022/08/24 05:42:42;;;;;;;10.10;6.90;;;18.20;99.90;;;;;;6194913;23;20020;-92
2022/08/24 05:45:09;;;;;;;13.20;8.60;;;18.30;99.90;;;;;;6220083;23;20023;-91
2022/08/24 05:47:35;;;;;;;11.00;7.35;;;18.30;99.90;;;;;;6194841;23;20342;-93
2022/08/24 05:50:01;;;;;;;12.50;8.45;;;18.40;99.90;;;;;;6220233;23;20012;-92
2022/08/24 05:52:27;;;;;;;12.70;8.00;;;18.40;99.90;;;;;;6194711;23;20327;-92
2022/08/24 05:54:54;;;;;;;;;;;18.50;99.90;;;;;;6195333;23;20058;-91
2022/08/24 05:57:22;;;;;;;15.25;9.45;;;18.50;99.90;;;;;;6195150;23;19916;-91
2022/08/24 05:59:49;;;;;;;14.88;9.95;;;18.50;99.90;;;;;;6195164;23;20082;-90
2022/08/24 06:02:16;;;;;;;17.92;10.93;;;18.60;99.90;;;;;;6219972;23;20354;-91
2022/08/24 06:04:42;;;;;;;13.85;9.25;;;18.70;99.90;;;;;;6194458;23;20086;-90
2022/08/24 06:07:09;;;;;;;;;;;18.80;99.90;;;;;;6195544;23;20091;-91
2022/08/24 06:09:35;;;;;;;15.43;9.50;;;19.10;99.90;;;;;;6219438;23;19916;-91
2022/08/24 06:12:01;;;;;;;16.77;10.23;;;19.70;99.90;;;;;;6194704;23;20048;-91
2022/08/24 06:14:26;;;;;;;19.92;12.07;;;20.20;99.90;;;;;;6194423;23;20058;-93
2022/08/24 06:16:52;;;;;;;19.45;12.52;;;20.30;99.90;;;;;;6218296;23;20102;-91
2022/08/24 06:19:19;;;;;;;20.65;12.95;;;20.30;99.90;;;;;;6219328;23;20051;-92
2022/08/24 06:21:47;;;;;;;21.75;13.93;;;20.30;99.90;;;;;;6194423;23;20108;-92
2022/08/24 06:24:14;;;;;;;21.35;13.05;;;20.30;99.90;;;;;;6193741;23;20024;-93
2022/08/24 06:29:26;;;;;;;23.15;14.82;;;20.40;99.90;;;;;;6219905;23;20043;-91
2022/08/24 06:31:53;;;;;;;22.25;14.32;;;20.50;99.90;;;;;;6195099;23;20016;-91
2022/08/24 06:34:19;;;;;;;24.20;14.73;;;20.60;99.90;;;;;;6194983;23;20022;-91
2022/08/24 06:36:46;;;;;;;25.15;15.95;;;21.10;99.90;;;;;;6221634;23;20099;-91
2022/08/24 06:39:12;;;;;;;23.60;15.82;;;21.90;99.90;;;;;;6222128;23;20404;-92
2022/08/24 06:41:39;;;;;;;27.75;15.80;;;23.00;99.90;;;;;;6196693;23;20021;-92
2022/08/24 06:44:08;;;;;;;26.23;15.88;;;23.90;99.90;;;;;;6196680;23;20021;-93
2022/08/24 06:46:35;;;;;;;21.75;15.75;;;24.80;99.90;;;;;;6196615;23;20055;-92
2022/08/24 06:49:01;;;;;;;23.52;15.48;;;25.30;99.90;;;;;;6221594;23;20024;-92
2022/08/24 06:51:27;;;;;;;23.35;15.75;;;25.40;99.90;;;;;;6221680;23;20062;-92
2022/08/24 06:53:54;;;;;;;;;;;25.10;99.90;;;;;;6222316;23;20020;-92
2022/08/24 06:56:23;;;;;;;21.50;15.10;;;24.70;99.90;;;;;;6196594;23;19911;-93
2022/08/24 06:58:49;;;;;;;22.27;15.40;;;24.40;99.90;;;;;;6221875;23;20023;-92
2022/08/24 07:01:19;;;;;;;;;;;24.00;99.90;;;;;;6222425;23;20460;-91
2022/08/24 07:03:45;;;;;;;20.73;13.57;;;23.80;99.90;;;;;;6196720;23;19916;-91
2022/08/24 07:06:12;;;;;;;;;;;23.40;99.90;;;;;;6221904;23;20074;-92
2022/08/24 07:08:41;;;;;;;19.30;12.68;;;23.20;99.90;;;;;;6196622;23;19923;-92
2022/08/24 07:11:08;;;;;;;18.40;13.05;;;23.00;99.90;;;;;;6196832;23;20016;-92
2022/08/24 07:13:34;;;;;;;17.13;11.10;;;22.90;99.90;;;;;;6196498;23;20346;-91
2022/08/24 07:16:00;;;;;;;18.08;11.88;;;22.80;99.90;;;;;;6196644;23;20064;-92
2022/08/24 07:29:04;;;;;;;11.07;7.95;;;22.50;99.90;;;;;;6248165;22;20054;-91
2022/08/24 07:31:35;;;;;;;12.80;8.15;;;22.50;99.90;;;;;;6196088;23;20350;-90
2022/08/24 07:34:02;;;;;;;11.77;7.55;;;22.50;99.90;;;;;;6196485;23;20027;-90
2022/08/24 07:36:28;;;;;;;12.80;7.25;;;22.40;99.90;;;;;;6196327;23;20088;-90
2022/08/24 07:38:55;;;;;;;9.88;7.07;;;22.40;99.90;;;;;;6196287;23;20035;-91
2022/08/24 07:41:25;;;;;;;9.85;6.78;;;22.40;99.90;;;;;;6196908;23;20020;-93
2022/08/24 07:43:52;;;;;;;8.90;5.10;;;22.40;99.90;;;;;;6196261;23;20075;-92
2022/08/24 07:46:18;;;;;;;7.10;4.40;;;22.40;99.90;;;;;;6195820;23;20022;-93
2022/08/24 07:48:44;;;;;;;7.55;5.05;;;22.40;99.90;;;;;;6196216;23;20396;-92
2022/08/24 07:51:15;;;;;;;7.93;4.80;;;22.40;99.90;;;;;;6196109;23;20098;-93
2022/08/24 07:53:55;;;;;;;8.57;5.00;;;22.40;99.90;;;;;;6196174;23;20016;-92
2022/08/24 07:56:21;;;;;;;9.60;6.38;;;22.40;99.90;;;;;;6196217;23;20027;-92
2022/08/24 07:58:49;;;;;;;9.07;6.35;;;22.40;99.90;;;;;;6195870;23;20012;-92
2022/08/24 08:01:22;;;;;;;8.32;5.32;;;22.40;99.90;;;;;;6195942;23;20024;-93
2022/08/24 08:03:49;;;;;;;8.38;5.55;;;22.40;99.90;;;;;;6195845;23;20044;-93
2022/08/24 08:06:17;;;;;;;10.48;5.88;;;22.50;99.90;;;;;;6195954;23;20020;-92
2022/08/24 08:08:44;;;;;;;10.23;6.28;;;22.50;99.90;;;;;;6196073;23;20020;-92
2022/08/24 08:11:10;;;;;;;7.97;5.25;;;22.50;99.90;;;;;;6195933;23;20027;-92
2022/08/24 08:13:38;;;;;;;9.48;6.13;;;22.50;99.90;;;;;;6195752;23;20457;-92
2022/08/24 08:16:07;;;;;;;9.48;6.22;;;22.60;99.90;;;;;;6195880;23;20024;-92
2022/08/24 08:18:33;;;;;;;8.95;5.63;;;22.60;99.90;;;;;;6195731;23;20442;-92
2022/08/24 08:21:01;;;;;;;9.30;5.63;;;22.60;99.90;;;;;;6195646;23;20016;-93
2022/08/24 08:26:14;;;;;;;8.27;5.50;;;22.70;99.90;;;;;;6220919;23;20027;-92
2022/08/24 08:28:41;;;;;;;8.60;4.80;;;22.70;99.90;;;;;;6195439;23;20109;-92
2022/08/24 08:31:06;;;;;;;9.20;5.50;;;22.80;99.90;;;;;;6195875;23;20016;-93
2022/08/24 08:33:34;;;;;;;10.27;5.32;;;22.80;99.90;;;;;;6195769;23;20345;-92
2022/08/24 08:36:10;;;;;;;6.57;4.20;;;22.80;99.90;;;;;;6195607;23;20094;-92
2022/08/24 08:38:37;;;;;;;7.22;4.22;;;22.90;99.90;;;;;;6195688;23;20457;-93
2022/08/24 08:41:37;;;;;;;6.82;4.10;;;23.00;99.90;;;;;;6196099;23;20027;-92
2022/08/24 08:44:29;;;;;;;7.32;4.40;;;23.00;99.90;;;;;;6195821;23;20106;-92
2022/08/24 08:47:11;;;;;;;5.88;3.20;;;23.10;99.90;;;;;;6195686;23;20366;-92
2022/08/24 08:50:14;;;;;;;6.95;4.03;;;23.10;99.90;;;;;;6195349;23;20058;-93
2022/08/24 08:53:32;;;;;;;8.55;4.93;;;23.10;99.90;;;;;;6195323;23;20054;-93
2022/08/24 08:56:10;;;;;;;9.80;5.60;;;23.30;99.90;;;;;;6160383;23;20095;-93
2022/08/24 08:58:50;;;;;;;8.02;4.50;;;23.30;99.90;;;;;;6195437;23;20075;-91
2022/08/24 09:01:41;;;;;;;6.93;4.53;;;23.40;99.90;;;;;;6195503;23;20458;-92
2022/08/24 09:04:35;;;;;;;6.18;3.58;;;23.60;99.90;;;;;;6195506;23;20020;-92
2022/08/24 09:07:13;;;;;;;4.68;3.03;;;23.60;99.90;;;;;;6196018;23;20023;-93
2022/08/24 09:10:51;;;;;;;5.75;3.30;;;23.60;99.90;;;;;;6195129;23;20024;-93
2022/08/24 09:40:54;;;;;;;6.30;3.30;;;24.10;99.90;;;;;;6234095;22;20404;-90
2022/08/24 09:44:13;;;;;;;6.00;3.20;;;24.20;99.90;;;;;;6255392;22;20015;-92
2022/08/24 09:46:56;;;;;;;7.32;2.85;;;24.20;99.90;;;;;;6255828;22;20016;-91
2022/08/24 09:49:41;;;;;;;3.58;1.98;;;24.20;99.90;;;;;;6255689;22;20445;-90
2022/08/24 09:52:35;;;;;;;4.03;2.28;;;24.30;99.90;;;;;;6255591;22;20445;-91
2022/08/24 09:55:25;;;;;;;5.35;2.75;;;24.40;99.90;;;;;;6255978;22;20105;-90
2022/08/24 09:58:06;;;;;;;6.18;2.92;;;24.40;99.90;;;;;;6255418;22;20515;-90
2022/08/24 10:00:42;;;;;;;4.85;2.13;;;24.60;99.90;;;;;;6255285;22;20054;-92
2022/08/24 10:06:48;;;;;;;4.60;1.85;;;24.60;99.90;;;;;;6148362;23;20349;-89
2022/08/24 10:09:38;;;;;;;5.47;2.20;;;24.80;99.90;;;;;;6253804;22;20161;-90
2022/08/24 10:12:26;;;;;;;4.50;2.33;;;24.80;99.90;;;;;;6254092;22;20041;-91
2022/08/24 10:15:10;;;;;;;4.28;2.10;;;24.80;99.90;;;;;;6255438;22;20019;-90
2022/08/24 10:17:42;;;;;;;4.10;2.20;;;24.90;99.90;;;;;;6255562;22;20019;-90
2022/08/24 10:20:24;;;;;;;3.85;2.20;;;25.00;99.90;;;;;;6254478;22;20510;-90
2022/08/24 10:23:24;;;;;;;3.65;2.00;;;25.10;99.90;;;;;;6254645;22;20019;-90
2022/08/24 10:25:56;;;;;;;5.18;2.17;;;25.20;99.90;;;;;;6254062;22;20094;-90
2022/08/24 10:28:40;;;;;;;3.75;2.25;;;25.30;99.90;;;;;;6255066;22;20106;-90
2022/08/24 10:31:09;;;;;;;3.13;1.58;;;25.40;99.90;;;;;;6255036;22;20058;-89
2022/08/24 10:34:12;;;;;;;3.65;1.88;;;25.50;99.90;;;;;;6254037;22;20019;-89
2022/08/24 10:37:26;;;;;;;;;;;;;;;;;;;;;
2022/08/24 10:40:17;;;;;;;4.35;2.13;;;25.70;99.90;;;;;;6281626;22;20047;-90
2022/08/24 10:46:17;;;;;;;4.43;1.75;;;25.90;99.90;;;;;;6278455;22;20019;-89
2022/08/24 10:49:12;;;;;;;3.53;2.00;;;26.10;99.90;;;;;;6254492;22;20046;-90
2022/08/24 10:51:59;;;;;;;5.18;1.77;;;26.20;99.90;;;;;;6222462;22;20019;-90
2022/08/24 10:54:25;;;;;;;4.57;1.70;;;26.30;99.90;;;;;;6255570;22;20479;-89
2022/08/24 10:57:05;;;;;;;3.28;1.83;;;26.50;99.90;;;;;;6254340;22;20015;-90
2022/08/24 10:59:54;;;;;;;2.58;1.58;;;26.60;99.90;;;;;;6253914;22;20019;-90
2022/08/24 11:02:35;;;;;;;2.33;1.33;;;26.80;99.90;;;;;;6253561;22;20019;-89
2022/08/24 11:05:27;;;;;;;3.42;1.90;;;26.90;99.90;;;;;;6252572;22;20405;-91
2022/08/24 11:11:54;;;;;;;3.90;1.52;;;27.20;99.90;;;;;;6256085;22;20468;-91
2022/08/24 12:54:26;;;;;;;3.95;1.40;;;27.10;98.50;;;;;;6246251;22;20027;-90
2022/08/24 12:57:10;;;;;;;2.33;1.00;;;27.00;98.60;;;;;;6220006;23;20027;-89
2022/08/24 12:59:42;;;;;;;3.15;1.10;;;27.00;98.50;;;;;;6194808;23;20043;-89
2022/08/24 13:02:13;;;;;;;1.83;1.10;;;27.00;98.40;;;;;;6194836;23;20024;-90
2022/08/24 13:05:13;;;;;;;2.53;1.15;;;27.00;98.40;;;;;;6194716;23;20052;-88
2022/08/24 13:08:14;;;;;;;3.03;1.15;;;27.00;98.20;;;;;;6220096;23;20465;-90
2022/08/24 13:11:04;;;;;;;3.50;1.10;;;26.90;98.20;;;;;;6246548;23;20031;-89
2022/08/24 13:13:44;;;;;;;2.95;1.13;;;26.90;98.30;;;;;;6193785;23;20113;-88
2022/08/24 13:23:34;;;;;;;2.30;1.20;;;26.90;97.70;;;;;;6132970;23;20064;-89
2022/08/24 13:39:50;;;;;;;2.97;1.80;;;26.90;98.60;;;;;;6246039;22;20504;-93
2022/08/24 13:43:03;;;;;;;4.72;1.60;;;26.90;98.50;;;;;;6194514;23;20529;-92
2022/08/24 13:46:26;;;;;;;2.97;1.92;;;26.90;98.40;;;;;;6201734;23;20024;-93
2022/08/24 13:49:28;;;;;;;2.45;1.50;;;26.90;98.30;;;;;;6219654;23;20020;-93
2022/08/24 13:52:32;;;;;;;2.38;1.30;;;26.90;98.40;;;;;;6194598;23;20016;-91
2022/08/24 13:55:29;;;;;;;2.72;1.42;;;26.90;98.40;;;;;;6195111;23;20095;-91
2022/08/24 13:58:33;;;;;;;3.58;1.83;;;26.90;98.60;;;;;;6219703;23;20032;-91
2022/08/24 14:01:13;;;;;;;4.47;1.85;;;26.90;98.60;;;;;;6194803;23;20016;-90
2022/08/24 14:04:02;;;;;;;3.45;1.85;;;26.90;98.70;;;;;;6219887;23;20457;-90
2022/08/24 14:07:09;;;;;;;3.67;1.90;;;26.90;98.60;;;;;;6137784;23;20028;-91
2022/08/24 14:42:16;;;;;;;4.03;2.10;;;27.70;97.80;;;;;;6220080;23;20024;-91
2022/08/24 18:08:25;;;;;;;7.28;4.47;;;25.50;99.40;;;;;;6246195;22;20411;-90
2022/08/24 19:29:10;;;;;;;10.18;6.60;;;24.00;99.90;;;;;;6247589;22;20020;-93
2022/08/24 19:31:36;;;;;;;;;;;23.90;99.90;;;;;;6196881;23;20024;-94
2022/08/24 19:34:02;;;;;;;11.23;6.03;;;23.90;99.90;;;;;;6196543;23;19954;-92
2022/08/24 19:36:31;;;;;;;;;;;23.90;99.90;;;;;;6197394;23;20059;-94
2022/08/24 19:39:21;;;;;;;8.02;5.80;;;23.80;99.90;;;;;;6197222;23;19911;-93
2022/08/24 19:59:38;;;;;;;10.73;6.75;;;23.50;99.90;;;;;;6247979;23;20052;-93
2022/08/24 20:02:04;;;;;;;9.20;6.22;;;23.50;99.90;;;;;;6196609;23;20352;-94
2022/08/24 20:04:39;;;;;;;;;;;23.50;99.90;;;;;;6196534;23;20018;-95
2022/08/24 20:07:05;;;;;;;8.02;6.22;;;23.40;99.90;;;;;;6221408;23;20325;-93
2022/08/24 20:09:31;;;;;;;;;;;23.40;99.90;;;;;;6196378;23;20028;-95
2022/08/24 20:11:57;;;;;;;8.75;6.38;;;23.40;99.90;;;;;;6221026;23;19915;-94
2022/08/24 20:14:25;;;;;;;;;;;23.40;99.90;;;;;;6196385;23;20059;-95
2022/08/24 20:16:51;;;;;;;9.40;6.63;;;23.40;99.90;;;;;;6195991;23;19950;-93
2022/08/24 20:19:17;;;;;;;;;;;23.40;99.90;;;;;;6196952;23;20027;-95
2022/08/24 20:21:43;;;;;;;9.05;5.95;;;23.40;99.90;;;;;;6221029;23;20352;-94
2022/08/24 20:24:10;;;;;;;;;;;23.30;99.90;;;;;;6196200;23;20090;-94
2022/08/24 20:34:22;;;;;;;8.07;6.05;;;23.30;99.90;;;;;;6245438;23;20020;-95
2022/08/24 20:36:48;;;;;;;;;;;23.30;99.90;;;;;;6196157;23;20035;-94
2022/08/24 21:07:48;;;;;;;7.70;5.68;;;22.90;99.90;;;;;;6246903;23;20058;-95
2022/08/24 21:10:20;;;;;;;8.02;5.45;;;22.90;99.90;;;;;;6220549;23;20028;-95
2022/08/24 21:54:45;;;;;;;8.45;6.05;;;22.60;99.90;;;;;;6246081;22;20054;-92
2022/08/24 21:57:11;;;;;;;9.65;6.38;;;22.60;99.90;;;;;;6194481;23;20012;-91
2022/08/24 21:59:45;;;;;;;;;;;22.50;99.90;;;;;;6220020;23;20096;-91
2022/08/24 22:02:41;;;;;;;;;;;;;;;;;;;;;
2022/08/24 22:05:07;;;;;;;8.95;6.68;;;22.40;99.90;;;;;;6219170;23;20449;-89
2022/08/24 22:07:33;;;;;;;10.40;7.10;;;22.40;99.90;;;;;;6219519;23;20020;-96
2022/08/24 22:10:09;;;;;;;;;;;;;;;;;;;;;
2022/08/24 22:12:39;;;;;;;9.13;6.30;;;22.20;99.90;;;;;;6220120;23;19921;-95
2022/08/24 22:15:08;;;;;;;9.02;6.45;;;22.20;99.90;;;;;;6193802;23;20077;-93
2022/08/24 22:17:34;;;;;;;9.35;6.40;;;22.10;99.90;;;;;;6194213;23;20046;-91
2022/08/24 22:20:00;;;;;;;;;;;22.10;99.90;;;;;;6195074;23;20016;-93
2022/08/24 22:22:26;;;;;;;9.27;6.60;;;22.10;99.90;;;;;;6244933;23;20330;-91
2022/08/24 22:24:52;;;;;;;10.90;6.35;;;22.10;99.90;;;;;;6220846;23;20139;-92
2022/08/24 22:27:18;;;;;;;8.05;5.43;;;22.10;99.90;;;;;;6243552;22;20016;-90
2022/08/24 22:29:43;;;;;;;8.55;5.40;;;22.10;99.90;;;;;;6203551;23;20024;-90
2022/08/24 22:32:09;;;;;;;;;;;22.00;99.90;;;;;;6220402;23;20064;-91
2022/08/24 22:34:35;;;;;;;7.93;5.30;;;22.00;99.90;;;;;;6194504;23;19915;-93
2022/08/24 22:37:01;;;;;;;;;;;22.00;99.90;;;;;;6195341;23;20078;-89
2022/08/24 22:39:27;;;;;;;7.78;4.78;;;21.90;99.90;;;;;;6194588;23;19920;-95
2022/08/24 22:41:53;;;;;;;;;;;21.90;99.90;;;;;;6195159;23;20099;-96
2022/08/24 22:44:20;;;;;;;7.55;5.10;;;21.90;99.90;;;;;;6194371;23;19915;-91
2022/08/24 22:46:52;;;;;;;7.10;4.75;;;21.80;99.90;;;;;;6194528;23;20027;-96
2022/08/24 23:09:57;;;;;;;7.30;4.25;;;21.30;99.90;;;;;;6245688;22;20028;-95
2022/08/24 23:12:23;;;;;;;5.50;3.60;;;21.30;99.90;;;;;;6196339;23;20461;-96
2022/08/24 23:14:50;;;;;;;6.55;3.53;;;21.20;99.90;;;;;;6196266;23;20449;-95
2022/08/24 23:31:10;;;;;;;6.95;3.92;;;21.20;99.90;;;;;;6248001;22;20024;-90
2022/08/24 23:34:07;;;;;;;;;;;;;;;;;;;;;
2022/08/24 23:36:39;;;;;;;6.00;4.05;;;21.10;99.90;;;;;;6222074;23;20055;-95
2022/08/24 23:39:07;;;;;;;7.57;4.65;;;21.00;99.90;;;;;;6196706;23;20024;-95
2022/08/24 23:41:58;;;;;;;6.22;4.25;;;21.00;99.90;;;;;;6196520;23;20021;-95
2022/08/24 23:44:54;;;;;;;6.93;4.25;;;20.90;99.90;;;;;;6243960;23;20018;-95
2022/08/24 23:47:19;;;;;;;6.22;4.75;;;20.80;99.90;;;;;;6197486;23;20051;-95
2022/08/24 23:49:45;;;;;;;6.07;4.10;;;20.80;99.90;;;;;;6198355;23;20028;-96
2022/08/24 23:52:13;;;;;;;7.03;4.20;;;20.80;99.90;;;;;;6198793;23;20022;-96
2022/08/24 23:54:40;;;;;;;6.30;3.97;;;20.70;99.90;;;;;;6206015;23;20023;-95
2022/08/24 23:57:07;;;;;;;6.57;4.40;;;20.70;99.90;;;;;;6206685;23;20027;-96
2022/08/24 23:59:33;;;;;;;6.60;3.70;;;20.60;99.90;;;;;;6201970;23;20059;-94
